EDT,Max TemperatureF,Mean TemperatureF,Min TemperatureF,Max Dew PointF,MeanDew PointF,Min DewpointF,Max Humidity, Mean Humidity, Min Humidity, Max Sea Level PressureIn, Mean Sea Level PressureIn, Min Sea Level PressureIn, Max VisibilityMiles, Mean VisibilityMiles, Min VisibilityMiles, Max Wind SpeedMPH, Mean Wind SpeedMPH, Max Gust SpeedMPH,PrecipitationIn, CloudCover, Events, WindDirDegrees
2013-8-1,88,82,76,75,73,72,94,77,59,30.07,30.01,29.98,10,10,10,18,7,23,0.00,1,Thunderstorm,134
2013-8-2,88,81,74,77,73,70,94,78,61,30.03,30.00,29.95,10,10,10,22,6,26,T,1,Thunderstorm,40
2013-8-3,88,80,72,77,73,70,93,78,63,30.12,30.08,30.01,10,9,1,26,8,37,0.36,5,Rain-Thunderstorm,217
2013-8-4,93,84,75,78,75,73,94,75,56,30.09,30.04,30.00,10,9,2,26,6,33,0.09,2,Rain,234
2013-8-5,91,83,75,78,75,73,97,81,64,30.03,29.98,29.94,10,9,4,14,6,17,0.24,2,Rain-Thunderstorm,253
2013-8-6,88,81,73,77,75,72,100,84,68,29.99,29.95,29.92,10,10,8,12,6,16,0.00,0,,71
2013-8-7,88,84,79,79,76,72,85,73,61,29.99,29.96,29.93,10,10,10,16,8,21,0.00,1,,112
2013-8-8,89,84,79,76,75,73,91,75,59,30.05,30.00,29.96,10,10,10,20,10,24,0.00,1,,123
2013-8-9,89,84,79,75,74,70,79,71,63,30.09,30.04,29.99,10,10,10,17,10,24,0.00,1,,119
2013-8-10,90,83,75,77,74,72,87,72,56,30.14,30.10,30.07,10,10,10,18,9,23,0.00,1,,121
2013-8-11,89,85,80,77,75,72,85,71,56,30.16,30.13,30.09,10,9,4,14,9,18,0.00,1,,113
2013-8-12,88,81,74,75,73,71,94,77,59,30.14,30.09,30.04,10,10,10,12,5,16,0.00,0,,90
2013-8-13,90,82,73,76,74,72,93,76,59,30.07,30.02,29.96,10,10,10,17,7,22,0.00,1,,142
2013-8-14,92,84,76,75,73,69,94,75,56,30.04,29.98,29.92,10,10,10,20,8,25,0.00,2,,180
2013-8-15,90,84,77,77,74,71,91,75,59,30.05,30.00,29.96,10,10,8,16,6,21,0.04,2,Rain-Thunderstorm,154
2013-8-16,91,84,77,76,74,69,91,72,52,30.07,30.03,29.99,10,10,10,17,6,22,0.00,1,,166
2013-8-17,90,85,80,78,76,75,94,79,64,30.09,30.06,30.03,10,10,10,18,9,23,0.00,1,Thunderstorm,135
2013-8-18,88,83,77,78,76,73,85,77,68,30.13,30.08,30.03,10,9,1,21,9,24,0.40,2,Rain-Thunderstorm,107
2013-8-19,90,86,81,78,76,73,91,75,59,30.09,30.04,29.99,10,10,10,18,9,23,0.00,1,,115
2013-8-20,90,86,81,78,75,72,91,75,59,30.11,30.06,30.02,10,10,10,17,10,21,T,1,,96
2013-8-21,90,84,78,79,76,73,88,78,68,30.13,30.08,30.05,10,10,2,20,8,25,0.20,4,Rain-Thunderstorm,93
2013-8-22,90,84,78,78,76,75,97,84,70,30.10,30.04,30.00,10,10,9,17,8,22,0.02,3,Rain-Thunderstorm,92
2013-8-23,89,85,80,77,76,72,91,74,56,30.03,30.00,29.97,10,10,10,18,8,23,0.01,2,Rain,109
2013-8-24,90,83,76,77,74,71,94,77,59,30.12,30.07,30.01,10,10,10,25,6,30,T,2,Rain-Thunderstorm,85
2013-8-25,85,80,74,77,74,72,97,86,74,30.18,30.13,30.08,10,9,2,14,4,17,0.41,4,Rain,46
2013-8-26,88,81,74,76,74,71,94,77,59,30.13,30.08,30.04,10,10,10,24,7,35,T,3,Rain,60
2013-8-27,89,84,79,74,70,66,85,70,55,30.07,30.03,30.01,10,10,10,17,10,21,0.00,2,,60
2013-8-28,88,81,73,73,70,69,87,71,55,30.07,30.03,30.00,10,10,10,14,7,20,0.00,2,,70
2013-8-29,88,81,73,74,72,70,94,76,57,30.04,30.00,29.96,10,10,10,12,5,15,T,5,Rain,138
2013-8-30,90,83,75,75,73,69,94,77,59,30.00,29.96,29.91,10,10,2,14,4,18,0.20,2,Rain-Thunderstorm,197
2013-8-31,94,83,72,75,71,66,94,70,46,30.00,29.95,29.91,10,9,1,31,8,39,0.24,2,Rain-Thunderstorm,197